METAR Data
IDs: Format: Raw Decoded Include TAF

Data at: 2028 UTC 18 Apr 2021

KJAX 182024Z 27009KT 2 1/2SM TSRA BR SCT016 BKN021CB OVC050 20/19 A2989 RMK AO2 LTG DSNT W-N RAB09 TSE07B09 PRESRR OCNL LTGICCG OHD TS OHD MOV E P0003 T02000189 $
KJAX 182018Z 27007KT 1 1/2SM TSRA BR SCT016 BKN021CB OVC050 21/18 A2988 RMK AO2 LTG DSNT W AND NW RAB09 TSE07B09 OCNL LTGICCG OHD TS OHD MOV E T02060183 PNO
KJAX 182015Z 27008KT 2SM TSRA SCT016 BKN021CB OVC050 21/18 A2988 RMK AO2 LTG DSNT W AND NW RAB09 TSE07B09 OCNL LTGICCG VC W TS VC W MOV E P0000 T02110183
KJAX 182009Z 27006KT 10SM -TSRA SCT016CB BKN050 OVC080 22/18 A2986 RMK AO2 LTG DSNT W AND NW RAB09 TSE07B09 OCNL LTGICCG VC W TS VC W MOV E P0000 T02170178
KJAX 181956Z 25007KT 10SM SCT016 BKN050 BKN080 OVC220 22/18 A2986 RMK AO2 LTG DSNT W AND NW RAB07E20 SLP112 P0000 T02170178
KJAX 181945Z 26005KT 10SM SCT016 BKN050 BKN080 OVC220 22/18 A2986 RMK AO2 LTG DSNT W-N RAB07E20 P0000 T02170183
KJAX 181856Z 25009KT 10SM SCT020 BKN029 BKN110 22/18 A2987 RMK AO2 SLP117 T02220183
KJAX 181756Z 25007KT 10SM SCT013 BKN021 BKN100 BKN250 22/18 A2989 RMK AO2 SLP122 60018 T02170183 10222 20183 58014 $
KJAX 181656Z 25005KT 10SM SCT013 BKN021 BKN100 21/18 A2990 RMK AO2 SLP126 T02110183 $
KJAX 181653Z 25008KT 10SM SCT013 BKN021 BKN100 21/18 A2991 RMK AO2 $
KJAX 181638Z 23007KT 10SM BKN010 OVC019 20/18 A2992 RMK AO2 T02000183 $
KJAX 181613Z 22010KT 10SM SCT008 OVC015 20/18 A2993 RMK AO2 T02000183 $
KJAX 181556Z 23006KT 10SM SCT010 BKN015 BKN110 BKN200 20/18 A2992 RMK AO2 RAB03E39 SLP132 P0001 T02000183 $
KJAX 181542Z 20006KT 10SM SCT007 OVC015 19/19 A2992 RMK AO2 RAB03E39 PRESFR P0001 T01940189 $
KJAX 181507Z 21009KT 7SM -RA BKN007 BKN110 19/18 A2994 RMK AO2 RAB03 P0000 T01890183 $
KJAX 181456Z 21005KT 10SM FEW005 SCT095 OVC110 19/18 A2993 RMK AO2 RAE51 SLP136 P0005 60017 T01890183 51015 $
KJAX 181422Z 18006KT 5SM RA BR SCT006 SCT014 OVC100 18/18 A2991 RMK AO2 P0002 T01830183 $
KJAX 181412Z 21005KT 10SM -RA SCT006 BKN019 OVC110 18/18 A2993 RMK AO2 P0001 T01830183 $
KJAX 181356Z 26003KT 7SM -RA BKN006 OVC012 19/18 A2993 RMK AO2 CIG 004V009 SLP135 P0005 T01890183 $
KJAX 181320Z 27003KT 4SM RA BR BKN005 BKN095 OVC110 18/18 A2993 RMK AO2 P0002 T01830183 $
KJAX 181256Z 20007KT 6SM -RA BR SCT005 BKN090 OVC100 18/18 A2994 RMK AO2 RAB11 SLP139 P0007 T01830183 $
KJAX 181156Z 00000KT 10SM SCT007 SCT050 BKN110 BKN200 18/18 A2989 RMK AO2 RAE25 SLP121 P0001 60020 70048 T01830183 10183 20183 50007 $
KJAX 181137Z 16006KT 10SM SCT006 SCT050 BKN100 18/18 A2987 RMK AO2 RAE25 P0001 T01830178 $
KJAX 181056Z 22004KT 7SM -RA SCT006 BKN017 OVC110 18/18 A2991 RMK AO2 RAB17 SLP127 P0003 T01830178 $
KJAX 180956Z 26004KT 10SM FEW006 BKN017 OVC110 18/18 A2989 RMK AO2 RAE40 SLP121 P0006 T01830178 $
KJAX 180949Z 27006KT 10SM FEW006 BKN017 OVC110 18/18 A2989 RMK AO2 RAE40 P0006 T01830178 $
KJAX 180856Z 22005KT 10SM -RA BKN010 OVC100 18/18 A2987 RMK AO2 RAB30 SLP114 P0000 60010 T01830178 55002 $
KJAX 180842Z 21004KT 10SM -RA BKN010 OVC100 18/18 A2986 RMK AO2 RAB30 P0000 T01830183 $
KJAX 180756Z 00000KT 10SM SCT007 BKN050 OVC100 18/18 A2984 RMK AO2 RAE56 SLP107 P0006 T01830178 $
KJAX 180656Z 25007KT 6SM -RA BR FEW005 OVC100 18/18 A2989 RMK AO2 RAB13 SLP123 P0004 T01830183 $
KJAX 180556Z 00000KT 9SM FEW005 BKN095 OVC250 18/18 A2987 RMK AO2 RAE08B32E47 SLP116 P0000 60015 T01830178 10200 20183 58002 $
KJAX 180548Z 20003KT 10SM FEW005 BKN095 OVC250 18/18 A2988 RMK AO2 RAE08B32E47 P0000 T01830183 $
KJAX 180456Z 00000KT 10SM -RA FEW055 OVC095 18/18 A2989 RMK AO2 RAB00E14B53 SLP123 P0001 T01830183 402330161 $
KJAX 180356Z 19006KT 10SM FEW060 BKN100 OVC250 18/18 A2988 RMK AO2 RAE29 SLP118 P0002 T01830178 $
KJAX 180256Z 25007KT 10SM -RA FEW055 BKN100 BKN140 OVC250 18/18 A2988 RMK AO2 RAE01B55 SLP119 P0000 60012 T01830178 51017 $
KJAX 180156Z 23007KT 10SM -RA FEW022 SCT080 OVC100 19/18 A2987 RMK AO2 LTG DSNT SE AND S TSE04 SLP115 OCNL LTGIC DSNT S CB DSNT S P0006 T01890178 $
KJAX 180104Z 22004KT 6SM -RA BR SCT055 BKN090 OVC100 19/18 A2986 RMK AO2 LTG DSNT E TSE04 P0002 T01940183 $
KJAX 180056Z 00000KT 4SM -TSRA BR FEW030CB OVC090 19/19 A2985 RMK AO2 LTG DSNT E AND SW RAB11 TSB09E10B11 PRESFR SLP107 OCNL LTGICCCCG VC SE TS VC SE MOV E P0006 T01940189 $
KJAX 180033Z 19007KT 7SM -TSRA FEW008 FEW030CB OVC090 19/19 A2987 RMK AO2 LTG DSNT SE-W RAB11 TSB09E10B11 PRESRR OCNL LTGICCCCG OHD TS OHD MOV E T01940189 PNO $
KJAX 180011Z 19003KT 10SM -TSRA FEW030CB OVC070 20/19 A2983 RMK AO2 LTG DSNT S AND W RAB11 TSB09E10B11 OCNL LTGICCG VC S TS VC S MOV E P0000 T02000189
KJAX 172356Z 00000KT 9SM FEW050 OVC060 20/19 A2983 RMK AO2 LTG DSNT S AND SW RAE56 SLP102 P0013 60013 T02000189 10233 20200 50005
KJAX 172329Z 00000KT 5SM -RA BR BKN039 OVC050 20/19 A2986 RMK AO2 P0011 T02000189
KJAX 172326Z 00000KT 2 1/2SM RA BR BKN039 OVC050 20/19 A2986 RMK AO2 P0009 T02000189
KJAX 172317Z 31006KT 1 1/2SM +RA BR BKN039 OVC050 20/19 A2987 RMK AO2 P0003 T02000189
KJAX 172312Z 30007KT 2SM -RA BR BKN039 OVC050 21/19 A2987 RMK AO2 LTG DSNT NW P0001 T02060189
KJAX 172256Z 32005KT 7SM -RA SCT039 BKN055 BKN100 OVC250 21/18 A2985 RMK AO2 LTG DSNT W-NE RAB47 SLP110 P0000 T02110183
KJAX 172156Z 24006KT 10SM FEW024 SCT060 SCT180 OVC250 22/17 A2983 RMK AO2 SLP101 T02220172
KJAX 172056Z 21003KT 10SM SCT026 SCT110 BKN250 23/17 A2982 RMK AO2 SLP097 T02280172 58015
KJAX 171956Z 23007KT 10SM SCT023 SCT055 SCT110 BKN250 23/18 A2983 RMK AO2 SLP102 T02280178
KJAX 171954Z VRB05KT 10SM SCT023 SCT055 SCT110 BKN250 23/17 A2983 RMK AO2
KJAX 171856Z 22004KT 10SM BKN023 BKN060 BKN200 22/17 A2986 RMK AO2 SLP110 T02220167
KJAX 171756Z VRB03KT 10SM BKN022 BKN150 22/17 A2986 RMK AO2 SLP112 T02220167 10222 20172 58020
KJAX 171656Z 00000KT 10SM OVC022 21/16 A2988 RMK AO2 SLP119 T02110156
KJAX 171556Z 07004KT 10SM SCT016 BKN022 OVC110 20/16 A2991 RMK AO2 SLP128 T02000161
KJAX 171456Z 03005KT 10SM SCT010 OVC025 19/16 A2992 RMK AO2 SLP132 T01890161 53021
KJAX 171356Z 07003KT 10SM FEW005 FEW010 OVC023 18/16 A2990 RMK AO2 SLP127 T01780156
KJAX 171256Z 11004KT 10SM FEW005 OVC021 17/16 A2987 RMK AO2 SLP116 T01720161 $
KJAX 171156Z 15005KT 7SM SCT005 BKN020 OVC100 17/17 A2986 RMK AO2 RAB04E38 SLP111 P0001 60003 70009 T01720167 10172 20167 53003 $
KJAX 171056Z 05003KT 5SM BR FEW003 OVC022 17/17 A2985 RMK AO2 SLP108 T01670167 $
KJAX 170956Z 05003KT 6SM BR FEW005 BKN025 OVC120 17/16 A2984 RMK AO2 RAB03E17 SLP104 P0000 T01670161 $
KJAX 170856Z 34003KT 6SM BR SCT005 OVC020 17/16 A2985 RMK AO2 RAB19E45 SLP107 P0000 60002 T01670161 55001 $
KJAX 170839Z 00000KT 6SM -RA FEW005 OVC020 17/16 A2985 RMK AO2 RAB19 P0000 T01670156 $